sensor_id;sensor_type;location;lat;lon;timestamp;P1;durP1;ratioP1;P2;durP2;ratioP2
19221;SDS011;9745;50.828;4.378;2023-09-19T00:00:36;8.93;;;1.97;;
19221;SDS011;9745;50.828;4.378;2023-09-19T00:03:02;11.90;;;2.63;;
19221;SDS011;9745;50.828;4.378;2023-09-19T00:05:29;12.77;;;2.10;;
19221;SDS011;9745;50.828;4.378;2023-09-19T00:07:57;13.47;;;2.07;;
19221;SDS011;9745;50.828;4.378;2023-09-19T00:10:26;9.27;;;2.33;;
19221;SDS011;9745;50.828;4.378;2023-09-19T00:12:56;10.40;;;2.33;;
19221;SDS011;9745;50.828;4.378;2023-09-19T00:15:23;10.10;;;3.03;;
19221;SDS011;9745;50.828;4.378;2023-09-19T00:17:49;12.90;;;2.73;;
19221;SDS011;9745;50.828;4.378;2023-09-19T00:20:17;15.13;;;3.27;;
19221;SDS011;9745;50.828;4.378;2023-09-19T00:22:43;11.20;;;2.00;;
19221;SDS011;9745;50.828;4.378;2023-09-19T00:25:10;10.30;;;2.23;;
19221;SDS011;9745;50.828;4.378;2023-09-19T00:27:37;9.67;;;2.40;;
19221;SDS011;9745;50.828;4.378;2023-09-19T00:30:06;12.73;;;2.70;;
19221;SDS011;9745;50.828;4.378;2023-09-19T00:32:34;9.57;;;2.20;;
19221;SDS011;9745;50.828;4.378;2023-09-19T00:35:00;10.70;;;2.10;;
19221;SDS011;9745;50.828;4.378;2023-09-19T00:37:26;13.40;;;3.40;;
19221;SDS011;9745;50.828;4.378;2023-09-19T00:39:52;11.40;;;2.53;;
19221;SDS011;9745;50.828;4.378;2023-09-19T00:42:21;11.63;;;2.43;;
19221;SDS011;9745;50.828;4.378;2023-09-19T00:44:47;9.93;;;2.23;;
19221;SDS011;9745;50.828;4.378;2023-09-19T00:47:16;8.47;;;2.30;;
19221;SDS011;9745;50.828;4.378;2023-09-19T00:49:42;8.00;;;1.90;;
19221;SDS011;9745;50.828;4.378;2023-09-19T00:52:08;10.33;;;2.37;;
19221;SDS011;9745;50.828;4.378;2023-09-19T00:54:36;14.53;;;2.10;;
19221;SDS011;9745;50.828;4.378;2023-09-19T00:57:02;10.57;;;2.00;;
19221;SDS011;9745;50.828;4.378;2023-09-19T00:59:28;14.90;;;2.37;;
19221;SDS011;9745;50.828;4.378;2023-09-19T01:01:56;9.67;;;2.20;;
19221;SDS011;9745;50.828;4.378;2023-09-19T01:04:22;15.33;;;2.33;;
19221;SDS011;9745;50.828;4.378;2023-09-19T01:06:49;16.60;;;3.03;;
19221;SDS011;9745;50.828;4.378;2023-09-19T01:09:19;6.67;;;2.03;;
19221;SDS011;9745;50.828;4.378;2023-09-19T01:11:45;11.50;;;2.27;;
19221;SDS011;9745;50.828;4.378;2023-09-19T01:14:15;13.33;;;2.67;;
19221;SDS011;9745;50.828;4.378;2023-09-19T01:22:25;7.77;;;2.40;;
19221;SDS011;9745;50.828;4.378;2023-09-19T01:25:03;10.80;;;2.17;;
19221;SDS011;9745;50.828;4.378;2023-09-19T01:28:34;11.27;;;3.00;;
19221;SDS011;9745;50.828;4.378;2023-09-19T01:30:30;8.73;;;2.07;;
19221;SDS011;9745;50.828;4.378;2023-09-19T01:32:58;9.07;;;2.17;;
19221;SDS011;9745;50.828;4.378;2023-09-19T01:35:24;9.27;;;2.07;;
19221;SDS011;9745;50.828;4.378;2023-09-19T01:37:51;9.47;;;2.63;;
19221;SDS011;9745;50.828;4.378;2023-09-19T01:40:18;12.87;;;2.50;;
19221;SDS011;9745;50.828;4.378;2023-09-19T01:42:50;10.80;;;2.37;;
19221;SDS011;9745;50.828;4.378;2023-09-19T01:50:44;12.17;;;2.43;;
19221;SDS011;9745;50.828;4.378;2023-09-19T01:53:23;12.03;;;2.20;;
19221;SDS011;9745;50.828;4.378;2023-09-19T01:55:50;15.90;;;2.17;;
19221;SDS011;9745;50.828;4.378;2023-09-19T01:58:34;9.23;;;3.10;;
19221;SDS011;9745;50.828;4.378;2023-09-19T02:01:02;11.77;;;2.43;;
19221;SDS011;9745;50.828;4.378;2023-09-19T02:03:30;12.53;;;2.67;;
19221;SDS011;9745;50.828;4.378;2023-09-19T02:05:56;13.27;;;2.37;;
19221;SDS011;9745;50.828;4.378;2023-09-19T02:08:22;11.47;;;2.80;;
19221;SDS011;9745;50.828;4.378;2023-09-19T02:10:49;13.77;;;2.70;;
19221;SDS011;9745;50.828;4.378;2023-09-19T02:13:18;13.60;;;2.10;;
19221;SDS011;9745;50.828;4.378;2023-09-19T02:15:44;10.83;;;2.20;;
19221;SDS011;9745;50.828;4.378;2023-09-19T02:18:11;9.97;;;2.07;;
19221;SDS011;9745;50.828;4.378;2023-09-19T02:20:37;10.50;;;2.60;;
19221;SDS011;9745;50.828;4.378;2023-09-19T02:23:04;13.17;;;3.20;;
19221;SDS011;9745;50.828;4.378;2023-09-19T02:25:30;12.93;;;2.73;;
19221;SDS011;9745;50.828;4.378;2023-09-19T02:27:57;15.57;;;2.70;;
19221;SDS011;9745;50.828;4.378;2023-09-19T02:30:28;16.93;;;2.97;;
19221;SDS011;9745;50.828;4.378;2023-09-19T02:32:54;13.77;;;2.50;;
19221;SDS011;9745;50.828;4.378;2023-09-19T02:35:20;9.97;;;2.80;;
19221;SDS011;9745;50.828;4.378;2023-09-19T02:37:47;14.47;;;2.43;;
19221;SDS011;9745;50.828;4.378;2023-09-19T02:40:13;16.87;;;2.80;;
19221;SDS011;9745;50.828;4.378;2023-09-19T02:42:52;10.83;;;2.07;;
19221;SDS011;9745;50.828;4.378;2023-09-19T02:45:19;10.23;;;2.80;;
19221;SDS011;9745;50.828;4.378;2023-09-19T02:47:45;11.07;;;2.23;;
19221;SDS011;9745;50.828;4.378;2023-09-19T02:50:12;7.97;;;2.33;;
19221;SDS011;9745;50.828;4.378;2023-09-19T02:52:41;9.43;;;2.67;;
19221;SDS011;9745;50.828;4.378;2023-09-19T02:55:08;10.73;;;2.07;;
19221;SDS011;9745;50.828;4.378;2023-09-19T02:57:35;9.60;;;3.17;;
19221;SDS011;9745;50.828;4.378;2023-09-19T03:00:05;13.13;;;2.50;;
19221;SDS011;9745;50.828;4.378;2023-09-19T03:02:32;10.23;;;2.60;;
19221;SDS011;9745;50.828;4.378;2023-09-19T03:04:59;9.37;;;2.93;;
19221;SDS011;9745;50.828;4.378;2023-09-19T03:07:26;17.33;;;2.50;;
19221;SDS011;9745;50.828;4.378;2023-09-19T03:09:52;20.40;;;2.63;;
19221;SDS011;9745;50.828;4.378;2023-09-19T03:12:18;6.77;;;1.90;;
19221;SDS011;9745;50.828;4.378;2023-09-19T03:14:44;13.13;;;2.63;;
19221;SDS011;9745;50.828;4.378;2023-09-19T03:17:10;9.83;;;2.07;;
19221;SDS011;9745;50.828;4.378;2023-09-19T03:19:36;8.33;;;2.33;;
19221;SDS011;9745;50.828;4.378;2023-09-19T03:22:05;11.97;;;2.93;;
19221;SDS011;9745;50.828;4.378;2023-09-19T03:24:32;9.63;;;1.97;;
19221;SDS011;9745;50.828;4.378;2023-09-19T03:27:00;14.23;;;2.13;;
19221;SDS011;9745;50.828;4.378;2023-09-19T03:29:26;7.47;;;2.60;;
19221;SDS011;9745;50.828;4.378;2023-09-19T03:31:52;6.13;;;2.20;;
19221;SDS011;9745;50.828;4.378;2023-09-19T03:34:19;11.47;;;2.80;;
19221;SDS011;9745;50.828;4.378;2023-09-19T03:36:45;9.27;;;2.23;;
19221;SDS011;9745;50.828;4.378;2023-09-19T03:39:12;15.77;;;2.63;;
19221;SDS011;9745;50.828;4.378;2023-09-19T03:41:40;11.30;;;2.57;;
19221;SDS011;9745;50.828;4.378;2023-09-19T03:44:06;13.40;;;2.63;;
19221;SDS011;9745;50.828;4.378;2023-09-19T03:46:32;11.63;;;2.27;;
19221;SDS011;9745;50.828;4.378;2023-09-19T03:49:01;10.40;;;2.17;;
19221;SDS011;9745;50.828;4.378;2023-09-19T03:51:27;11.53;;;2.20;;
19221;SDS011;9745;50.828;4.378;2023-09-19T03:53:53;14.03;;;2.50;;
19221;SDS011;9745;50.828;4.378;2023-09-19T03:56:19;9.27;;;2.00;;
19221;SDS011;9745;50.828;4.378;2023-09-19T03:58:45;10.60;;;2.23;;
19221;SDS011;9745;50.828;4.378;2023-09-19T04:01:11;11.80;;;2.60;;
19221;SDS011;9745;50.828;4.378;2023-09-19T04:03:38;11.20;;;2.73;;
19221;SDS011;9745;50.828;4.378;2023-09-19T04:06:15;7.47;;;1.97;;
19221;SDS011;9745;50.828;4.378;2023-09-19T04:08:42;12.07;;;2.37;;
19221;SDS011;9745;50.828;4.378;2023-09-19T04:11:09;8.47;;;2.03;;
19221;SDS011;9745;50.828;4.378;2023-09-19T04:13:35;15.77;;;2.40;;
19221;SDS011;9745;50.828;4.378;2023-09-19T04:16:01;9.03;;;2.57;;
19221;SDS011;9745;50.828;4.378;2023-09-19T04:18:28;8.57;;;2.20;;
19221;SDS011;9745;50.828;4.378;2023-09-19T04:20:57;13.37;;;2.53;;
19221;SDS011;9745;50.828;4.378;2023-09-19T04:23:23;10.47;;;3.20;;
19221;SDS011;9745;50.828;4.378;2023-09-19T04:25:49;7.17;;;2.00;;
19221;SDS011;9745;50.828;4.378;2023-09-19T04:28:16;7.77;;;2.10;;
19221;SDS011;9745;50.828;4.378;2023-09-19T04:30:42;11.10;;;2.40;;
19221;SDS011;9745;50.828;4.378;2023-09-19T04:33:08;13.83;;;3.00;;
19221;SDS011;9745;50.828;4.378;2023-09-19T04:35:34;13.33;;;2.50;;
19221;SDS011;9745;50.828;4.378;2023-09-19T04:38:00;12.30;;;2.47;;
19221;SDS011;9745;50.828;4.378;2023-09-19T04:40:28;7.17;;;1.93;;
19221;SDS011;9745;50.828;4.378;2023-09-19T04:42:54;12.60;;;2.70;;
19221;SDS011;9745;50.828;4.378;2023-09-19T04:45:22;16.00;;;2.93;;
19221;SDS011;9745;50.828;4.378;2023-09-19T04:47:48;11.00;;;1.90;;
19221;SDS011;9745;50.828;4.378;2023-09-19T04:50:14;8.27;;;2.00;;
19221;SDS011;9745;50.828;4.378;2023-09-19T04:52:42;8.00;;;2.67;;
19221;SDS011;9745;50.828;4.378;2023-09-19T04:55:12;13.10;;;2.30;;
19221;SDS011;9745;50.828;4.378;2023-09-19T04:57:45;9.57;;;1.90;;
19221;SDS011;9745;50.828;4.378;2023-09-19T05:00:14;13.60;;;2.67;;
19221;SDS011;9745;50.828;4.378;2023-09-19T05:02:42;14.47;;;2.40;;
19221;SDS011;9745;50.828;4.378;2023-09-19T05:05:08;17.37;;;2.43;;
19221;SDS011;9745;50.828;4.378;2023-09-19T05:07:42;11.57;;;2.10;;
19221;SDS011;9745;50.828;4.378;2023-09-19T05:10:09;16.77;;;2.80;;
19221;SDS011;9745;50.828;4.378;2023-09-19T05:12:36;10.77;;;2.57;;
19221;SDS011;9745;50.828;4.378;2023-09-19T05:15:03;9.20;;;2.73;;
19221;SDS011;9745;50.828;4.378;2023-09-19T05:17:29;13.90;;;2.70;;
19221;SDS011;9745;50.828;4.378;2023-09-19T05:19:56;11.37;;;2.30;;
19221;SDS011;9745;50.828;4.378;2023-09-19T05:22:23;15.20;;;3.00;;
19221;SDS011;9745;50.828;4.378;2023-09-19T05:24:49;12.97;;;2.30;;
19221;SDS011;9745;50.828;4.378;2023-09-19T05:27:16;12.33;;;2.80;;
19221;SDS011;9745;50.828;4.378;2023-09-19T05:29:45;9.43;;;2.23;;
19221;SDS011;9745;50.828;4.378;2023-09-19T05:32:11;10.43;;;2.10;;
19221;SDS011;9745;50.828;4.378;2023-09-19T05:34:38;10.77;;;2.13;;
19221;SDS011;9745;50.828;4.378;2023-09-19T05:37:04;9.87;;;2.07;;
19221;SDS011;9745;50.828;4.378;2023-09-19T05:39:32;13.30;;;2.80;;
19221;SDS011;9745;50.828;4.378;2023-09-19T05:41:58;16.03;;;2.67;;
19221;SDS011;9745;50.828;4.378;2023-09-19T05:44:25;12.70;;;2.37;;
19221;SDS011;9745;50.828;4.378;2023-09-19T05:46:51;16.80;;;2.20;;
19221;SDS011;9745;50.828;4.378;2023-09-19T05:49:17;13.43;;;3.00;;
19221;SDS011;9745;50.828;4.378;2023-09-19T05:51:46;10.70;;;2.23;;
19221;SDS011;9745;50.828;4.378;2023-09-19T05:54:12;14.80;;;2.30;;
19221;SDS011;9745;50.828;4.378;2023-09-19T05:56:38;12.47;;;2.17;;
19221;SDS011;9745;50.828;4.378;2023-09-19T05:59:04;17.97;;;2.60;;
19221;SDS011;9745;50.828;4.378;2023-09-19T06:01:30;10.60;;;2.27;;
19221;SDS011;9745;50.828;4.378;2023-09-19T06:03:59;10.57;;;1.83;;
19221;SDS011;9745;50.828;4.378;2023-09-19T06:06:25;19.27;;;2.37;;
19221;SDS011;9745;50.828;4.378;2023-09-19T06:08:51;12.80;;;2.00;;
19221;SDS011;9745;50.828;4.378;2023-09-19T06:11:17;11.00;;;2.10;;
19221;SDS011;9745;50.828;4.378;2023-09-19T06:13:45;11.87;;;2.27;;
19221;SDS011;9745;50.828;4.378;2023-09-19T06:16:12;14.43;;;2.87;;
19221;SDS011;9745;50.828;4.378;2023-09-19T06:18:38;10.73;;;2.07;;
19221;SDS011;9745;50.828;4.378;2023-09-19T06:21:04;10.70;;;1.90;;
19221;SDS011;9745;50.828;4.378;2023-09-19T06:23:33;9.30;;;2.40;;
19221;SDS011;9745;50.828;4.378;2023-09-19T06:25:59;10.80;;;2.10;;
19221;SDS011;9745;50.828;4.378;2023-09-19T06:28:25;7.53;;;2.30;;
19221;SDS011;9745;50.828;4.378;2023-09-19T06:30:53;12.93;;;2.60;;
19221;SDS011;9745;50.828;4.378;2023-09-19T06:33:19;6.73;;;2.00;;
19221;SDS011;9745;50.828;4.378;2023-09-19T06:35:46;12.90;;;2.37;;
19221;SDS011;9745;50.828;4.378;2023-09-19T06:38:13;9.73;;;1.87;;
19221;SDS011;9745;50.828;4.378;2023-09-19T06:40:40;7.77;;;2.00;;
19221;SDS011;9745;50.828;4.378;2023-09-19T06:43:10;9.67;;;2.40;;
19221;SDS011;9745;50.828;4.378;2023-09-19T06:45:36;11.03;;;2.50;;
19221;SDS011;9745;50.828;4.378;2023-09-19T06:48:02;8.47;;;2.33;;
19221;SDS011;9745;50.828;4.378;2023-09-19T06:50:28;10.53;;;2.30;;
19221;SDS011;9745;50.828;4.378;2023-09-19T06:52:56;12.00;;;1.93;;
19221;SDS011;9745;50.828;4.378;2023-09-19T06:55:24;9.37;;;2.23;;
19221;SDS011;9745;50.828;4.378;2023-09-19T06:57:53;9.60;;;2.17;;
19221;SDS011;9745;50.828;4.378;2023-09-19T07:00:19;10.63;;;2.30;;
19221;SDS011;9745;50.828;4.378;2023-09-19T07:02:59;8.90;;;2.50;;
19221;SDS011;9745;50.828;4.378;2023-09-19T07:05:26;13.57;;;2.03;;
19221;SDS011;9745;50.828;4.378;2023-09-19T07:07:53;15.23;;;2.00;;
19221;SDS011;9745;50.828;4.378;2023-09-19T07:10:24;12.67;;;2.37;;
19221;SDS011;9745;50.828;4.378;2023-09-19T07:13:00;14.00;;;2.87;;
19221;SDS011;9745;50.828;4.378;2023-09-19T07:15:27;11.07;;;3.30;;
19221;SDS011;9745;50.828;4.378;2023-09-19T07:17:53;11.93;;;2.20;;
19221;SDS011;9745;50.828;4.378;2023-09-19T07:20:21;12.37;;;3.33;;
19221;SDS011;9745;50.828;4.378;2023-09-19T07:22:47;12.70;;;3.70;;
19221;SDS011;9745;50.828;4.378;2023-09-19T07:25:15;9.90;;;2.17;;
19221;SDS011;9745;50.828;4.378;2023-09-19T07:27:41;16.17;;;1.87;;
19221;SDS011;9745;50.828;4.378;2023-09-19T07:30:08;9.40;;;2.40;;
19221;SDS011;9745;50.828;4.378;2023-09-19T07:32:34;12.63;;;2.13;;
19221;SDS011;9745;50.828;4.378;2023-09-19T07:35:04;9.93;;;2.63;;
19221;SDS011;9745;50.828;4.378;2023-09-19T07:37:33;6.37;;;1.87;;
19221;SDS011;9745;50.828;4.378;2023-09-19T07:39:59;12.53;;;2.77;;
19221;SDS011;9745;50.828;4.378;2023-09-19T07:42:26;10.27;;;2.10;;
19221;SDS011;9745;50.828;4.378;2023-09-19T07:44:52;13.50;;;2.97;;
19221;SDS011;9745;50.828;4.378;2023-09-19T07:47:19;9.33;;;2.73;;
19221;SDS011;9745;50.828;4.378;2023-09-19T07:49:49;14.70;;;2.43;;
19221;SDS011;9745;50.828;4.378;2023-09-19T07:52:15;15.80;;;2.00;;
19221;SDS011;9745;50.828;4.378;2023-09-19T07:54:41;11.30;;;2.73;;
19221;SDS011;9745;50.828;4.378;2023-09-19T07:57:09;13.93;;;2.13;;
19221;SDS011;9745;50.828;4.378;2023-09-19T07:59:36;15.83;;;2.40;;
19221;SDS011;9745;50.828;4.378;2023-09-19T08:02:03;4.77;;;2.03;;
19221;SDS011;9745;50.828;4.378;2023-09-19T08:04:29;12.47;;;1.90;;
19221;SDS011;9745;50.828;4.378;2023-09-19T08:06:58;14.07;;;2.43;;
19221;SDS011;9745;50.828;4.378;2023-09-19T08:09:25;12.10;;;2.87;;
19221;SDS011;9745;50.828;4.378;2023-09-19T08:11:52;10.83;;;2.13;;
19221;SDS011;9745;50.828;4.378;2023-09-19T08:14:19;12.00;;;2.43;;
19221;SDS011;9745;50.828;4.378;2023-09-19T08:16:45;15.03;;;2.30;;
19221;SDS011;9745;50.828;4.378;2023-09-19T08:19:11;10.70;;;2.40;;
19221;SDS011;9745;50.828;4.378;2023-09-19T08:21:37;8.27;;;2.33;;
19221;SDS011;9745;50.828;4.378;2023-09-19T08:24:03;11.47;;;2.87;;
19221;SDS011;9745;50.828;4.378;2023-09-19T08:26:29;15.90;;;2.83;;
19221;SDS011;9745;50.828;4.378;2023-09-19T08:28:56;14.17;;;3.60;;
19221;SDS011;9745;50.828;4.378;2023-09-19T08:31:22;11.93;;;2.30;;
19221;SDS011;9745;50.828;4.378;2023-09-19T08:33:49;15.23;;;2.47;;
19221;SDS011;9745;50.828;4.378;2023-09-19T08:36:16;11.87;;;2.20;;
19221;SDS011;9745;50.828;4.378;2023-09-19T08:38:42;10.07;;;3.33;;
19221;SDS011;9745;50.828;4.378;2023-09-19T08:41:09;12.13;;;2.30;;
19221;SDS011;9745;50.828;4.378;2023-09-19T08:43:35;11.33;;;2.10;;
19221;SDS011;9745;50.828;4.378;2023-09-19T08:46:16;8.57;;;2.27;;
19221;SDS011;9745;50.828;4.378;2023-09-19T08:56:24;7.07;;;2.27;;
19221;SDS011;9745;50.828;4.378;2023-09-19T08:59:02;9.77;;;2.33;;
19221;SDS011;9745;50.828;4.378;2023-09-19T09:01:29;9.03;;;2.10;;
19221;SDS011;9745;50.828;4.378;2023-09-19T09:03:57;9.53;;;2.17;;
19221;SDS011;9745;50.828;4.378;2023-09-19T09:06:24;12.03;;;2.20;;
19221;SDS011;9745;50.828;4.378;2023-09-19T09:08:51;9.87;;;2.30;;
19221;SDS011;9745;50.828;4.378;2023-09-19T09:11:17;9.97;;;1.83;;
19221;SDS011;9745;50.828;4.378;2023-09-19T09:13:44;6.30;;;2.07;;
19221;SDS011;9745;50.828;4.378;2023-09-19T09:16:11;7.77;;;2.67;;
19221;SDS011;9745;50.828;4.378;2023-09-19T09:18:38;12.57;;;2.50;;
19221;SDS011;9745;50.828;4.378;2023-09-19T09:21:04;10.70;;;2.33;;
19221;SDS011;9745;50.828;4.378;2023-09-19T09:23:31;9.50;;;2.03;;
19221;SDS011;9745;50.828;4.378;2023-09-19T09:25:57;8.80;;;2.33;;
19221;SDS011;9745;50.828;4.378;2023-09-19T09:28:32;10.83;;;2.53;;
19221;SDS011;9745;50.828;4.378;2023-09-19T09:30:59;10.13;;;2.10;;
19221;SDS011;9745;50.828;4.378;2023-09-19T09:33:33;13.50;;;2.20;;
19221;SDS011;9745;50.828;4.378;2023-09-19T09:35:59;11.00;;;2.57;;
19221;SDS011;9745;50.828;4.378;2023-09-19T09:38:27;15.17;;;2.20;;
19221;SDS011;9745;50.828;4.378;2023-09-19T09:40:57;11.13;;;1.77;;
19221;SDS011;9745;50.828;4.378;2023-09-19T09:43:33;8.27;;;1.83;;
19221;SDS011;9745;50.828;4.378;2023-09-19T09:46:10;8.73;;;1.77;;
19221;SDS011;9745;50.828;4.378;2023-09-19T09:51:49;9.07;;;2.00;;
19221;SDS011;9745;50.828;4.378;2023-09-19T09:54:28;7.57;;;2.00;;
19221;SDS011;9745;50.828;4.378;2023-09-19T09:59:48;7.03;;;1.50;;
19221;SDS011;9745;50.828;4.378;2023-09-19T10:02:15;7.47;;;1.60;;
19221;SDS011;9745;50.828;4.378;2023-09-19T10:04:50;10.67;;;1.80;;
19221;SDS011;9745;50.828;4.378;2023-09-19T10:07:27;12.87;;;2.23;;
19221;SDS011;9745;50.828;4.378;2023-09-19T10:09:57;10.43;;;1.63;;
19221;SDS011;9745;50.828;4.378;2023-09-19T10:12:30;10.07;;;1.80;;
19221;SDS011;9745;50.828;4.378;2023-09-19T10:14:57;5.90;;;1.43;;
19221;SDS011;9745;50.828;4.378;2023-09-19T10:17:25;12.77;;;1.70;;
19221;SDS011;9745;50.828;4.378;2023-09-19T10:22:22;6.13;;;1.50;;
19221;SDS011;9745;50.828;4.378;2023-09-19T10:24:49;6.77;;;1.30;;
19221;SDS011;9745;50.828;4.378;2023-09-19T10:27:18;8.50;;;1.63;;
19221;SDS011;9745;50.828;4.378;2023-09-19T10:29:48;6.40;;;1.40;;
19221;SDS011;9745;50.828;4.378;2023-09-19T10:32:19;5.63;;;1.37;;
19221;SDS011;9745;50.828;4.378;2023-09-19T10:34:46;7.83;;;1.50;;
19221;SDS011;9745;50.828;4.378;2023-09-19T10:37:12;9.87;;;1.83;;
19221;SDS011;9745;50.828;4.378;2023-09-19T10:39:40;8.90;;;1.43;;
19221;SDS011;9745;50.828;4.378;2023-09-19T10:42:06;10.40;;;1.30;;
19221;SDS011;9745;50.828;4.378;2023-09-19T10:44:34;5.93;;;1.43;;
19221;SDS011;9745;50.828;4.378;2023-09-19T10:47:09;8.23;;;1.47;;
19221;SDS011;9745;50.828;4.378;2023-09-19T10:49:35;10.43;;;1.80;;
19221;SDS011;9745;50.828;4.378;2023-09-19T10:52:08;5.93;;;1.30;;
19221;SDS011;9745;50.828;4.378;2023-09-19T10:54:38;5.67;;;1.60;;
19221;SDS011;9745;50.828;4.378;2023-09-19T10:57:06;4.67;;;1.13;;
19221;SDS011;9745;50.828;4.378;2023-09-19T10:59:34;16.97;;;1.63;;
19221;SDS011;9745;50.828;4.378;2023-09-19T11:02:15;10.57;;;1.70;;
19221;SDS011;9745;50.828;4.378;2023-09-19T11:04:42;13.10;;;1.67;;
19221;SDS011;9745;50.828;4.378;2023-09-19T11:07:14;13.20;;;1.60;;
19221;SDS011;9745;50.828;4.378;2023-09-19T11:15:06;8.57;;;1.63;;
19221;SDS011;9745;50.828;4.378;2023-09-19T11:17:34;7.27;;;1.47;;
19221;SDS011;9745;50.828;4.378;2023-09-19T11:30:40;6.77;;;1.17;;
19221;SDS011;9745;50.828;4.378;2023-09-19T11:33:17;7.97;;;1.50;;
19221;SDS011;9745;50.828;4.378;2023-09-19T11:36:07;3.80;;;0.90;;
19221;SDS011;9745;50.828;4.378;2023-09-19T11:47:14;4.70;;;1.30;;
19221;SDS011;9745;50.828;4.378;2023-09-19T11:49:15;6.80;;;1.27;;
19221;SDS011;9745;50.828;4.378;2023-09-19T11:51:45;9.73;;;1.63;;
19221;SDS011;9745;50.828;4.378;2023-09-19T11:54:13;14.30;;;2.47;;
19221;SDS011;9745;50.828;4.378;2023-09-19T11:56:51;4.90;;;1.13;;
19221;SDS011;9745;50.828;4.378;2023-09-19T11:59:28;24.33;;;2.13;;
19221;SDS011;9745;50.828;4.378;2023-09-19T12:01:55;8.27;;;1.37;;
19221;SDS011;9745;50.828;4.378;2023-09-19T12:04:36;6.07;;;1.20;;
19221;SDS011;9745;50.828;4.378;2023-09-19T12:07:03;7.70;;;2.13;;
19221;SDS011;9745;50.828;4.378;2023-09-19T12:09:30;4.33;;;1.10;;
19221;SDS011;9745;50.828;4.378;2023-09-19T12:11:56;9.13;;;1.47;;
19221;SDS011;9745;50.828;4.378;2023-09-19T12:14:24;5.60;;;1.23;;
19221;SDS011;9745;50.828;4.378;2023-09-19T12:16:57;5.83;;;1.00;;
19221;SDS011;9745;50.828;4.378;2023-09-19T12:19:26;5.57;;;0.90;;
19221;SDS011;9745;50.828;4.378;2023-09-19T12:21:56;13.23;;;1.50;;
19221;SDS011;9745;50.828;4.378;2023-09-19T12:24:23;12.30;;;1.67;;
19221;SDS011;9745;50.828;4.378;2023-09-19T12:26:51;4.97;;;1.00;;
19221;SDS011;9745;50.828;4.378;2023-09-19T12:29:19;9.10;;;2.00;;
19221;SDS011;9745;50.828;4.378;2023-09-19T12:31:55;8.93;;;1.40;;
19221;SDS011;9745;50.828;4.378;2023-09-19T12:34:28;9.00;;;1.00;;
19221;SDS011;9745;50.828;4.378;2023-09-19T12:37:04;4.63;;;0.90;;
19221;SDS011;9745;50.828;4.378;2023-09-19T12:39:37;9.17;;;1.30;;
19221;SDS011;9745;50.828;4.378;2023-09-19T12:42:03;10.10;;;1.50;;
19221;SDS011;9745;50.828;4.378;2023-09-19T12:44:33;3.47;;;1.10;;
19221;SDS011;9745;50.828;4.378;2023-09-19T12:47:00;10.67;;;1.40;;
19221;SDS011;9745;50.828;4.378;2023-09-19T12:49:26;3.53;;;0.90;;
19221;SDS011;9745;50.828;4.378;2023-09-19T12:51:54;8.20;;;1.47;;
19221;SDS011;9745;50.828;4.378;2023-09-19T12:54:23;5.53;;;1.23;;
19221;SDS011;9745;50.828;4.378;2023-09-19T12:56:51;7.00;;;1.20;;
19221;SDS011;9745;50.828;4.378;2023-09-19T12:59:19;5.37;;;1.13;;
19221;SDS011;9745;50.828;4.378;2023-09-19T13:02:06;6.80;;;1.37;;
19221;SDS011;9745;50.828;4.378;2023-09-19T13:04:38;4.07;;;0.97;;
19221;SDS011;9745;50.828;4.378;2023-09-19T13:07:06;6.70;;;1.20;;
19221;SDS011;9745;50.828;4.378;2023-09-19T13:09:34;5.10;;;1.17;;
19221;SDS011;9745;50.828;4.378;2023-09-19T13:12:00;2.00;;;0.80;;
19221;SDS011;9745;50.828;4.378;2023-09-19T13:14:27;3.20;;;1.00;;
19221;SDS011;9745;50.828;4.378;2023-09-19T13:24:51;2.77;;;1.20;;
19221;SDS011;9745;50.828;4.378;2023-09-19T13:27:17;6.60;;;1.13;;
19221;SDS011;9745;50.828;4.378;2023-09-19T13:29:43;3.67;;;0.90;;
19221;SDS011;9745;50.828;4.378;2023-09-19T13:32:09;9.73;;;1.30;;
19221;SDS011;9745;50.828;4.378;2023-09-19T13:34:36;5.10;;;1.20;;
19221;SDS011;9745;50.828;4.378;2023-09-19T13:37:03;4.70;;;1.03;;
19221;SDS011;9745;50.828;4.378;2023-09-19T13:39:29;4.60;;;1.73;;
19221;SDS011;9745;50.828;4.378;2023-09-19T13:41:55;5.43;;;1.20;;
19221;SDS011;9745;50.828;4.378;2023-09-19T13:44:21;8.77;;;1.23;;
19221;SDS011;9745;50.828;4.378;2023-09-19T13:46:48;4.33;;;1.17;;
19221;SDS011;9745;50.828;4.378;2023-09-19T13:49:14;4.93;;;1.17;;
19221;SDS011;9745;50.828;4.378;2023-09-19T13:51:40;6.33;;;1.50;;
19221;SDS011;9745;50.828;4.378;2023-09-19T13:54:08;5.23;;;0.87;;
19221;SDS011;9745;50.828;4.378;2023-09-19T13:56:36;4.87;;;1.17;;
19221;SDS011;9745;50.828;4.378;2023-09-19T13:59:03;6.90;;;1.67;;
19221;SDS011;9745;50.828;4.378;2023-09-19T14:01:29;4.10;;;0.90;;
19221;SDS011;9745;50.828;4.378;2023-09-19T14:03:55;4.07;;;1.10;;
19221;SDS011;9745;50.828;4.378;2023-09-19T14:06:22;2.73;;;1.13;;
19221;SDS011;9745;50.828;4.378;2023-09-19T14:08:48;4.47;;;1.37;;
19221;SDS011;9745;50.828;4.378;2023-09-19T14:11:15;6.23;;;1.30;;
19221;SDS011;9745;50.828;4.378;2023-09-19T14:13:41;5.37;;;1.40;;
19221;SDS011;9745;50.828;4.378;2023-09-19T14:16:11;8.80;;;1.63;;
19221;SDS011;9745;50.828;4.378;2023-09-19T14:18:38;5.33;;;1.13;;
19221;SDS011;9745;50.828;4.378;2023-09-19T14:21:05;6.67;;;1.33;;
19221;SDS011;9745;50.828;4.378;2023-09-19T14:23:37;7.17;;;1.63;;
19221;SDS011;9745;50.828;4.378;2023-09-19T14:26:03;5.00;;;1.40;;
19221;SDS011;9745;50.828;4.378;2023-09-19T14:28:30;7.70;;;1.30;;
19221;SDS011;9745;50.828;4.378;2023-09-19T14:30:58;4.00;;;1.40;;
19221;SDS011;9745;50.828;4.378;2023-09-19T14:33:29;5.13;;;1.33;;
19221;SDS011;9745;50.828;4.378;2023-09-19T14:35:56;3.80;;;1.40;;
19221;SDS011;9745;50.828;4.378;2023-09-19T14:38:22;5.67;;;1.30;;
19221;SDS011;9745;50.828;4.378;2023-09-19T14:40:48;4.77;;;1.23;;
19221;SDS011;9745;50.828;4.378;2023-09-19T14:43:15;7.53;;;1.70;;
19221;SDS011;9745;50.828;4.378;2023-09-19T14:45:42;3.17;;;1.43;;
19221;SDS011;9745;50.828;4.378;2023-09-19T14:48:08;4.07;;;1.30;;
19221;SDS011;9745;50.828;4.378;2023-09-19T14:50:34;5.13;;;1.20;;
19221;SDS011;9745;50.828;4.378;2023-09-19T14:53:00;4.33;;;1.47;;
19221;SDS011;9745;50.828;4.378;2023-09-19T14:55:27;10.83;;;3.47;;
19221;SDS011;9745;50.828;4.378;2023-09-19T14:57:54;6.23;;;2.33;;
19221;SDS011;9745;50.828;4.378;2023-09-19T15:00:23;6.40;;;1.70;;
19221;SDS011;9745;50.828;4.378;2023-09-19T15:02:49;7.83;;;1.47;;
19221;SDS011;9745;50.828;4.378;2023-09-19T15:05:16;6.70;;;1.67;;
19221;SDS011;9745;50.828;4.378;2023-09-19T15:07:42;7.73;;;1.60;;
19221;SDS011;9745;50.828;4.378;2023-09-19T15:10:08;3.20;;;1.30;;
19221;SDS011;9745;50.828;4.378;2023-09-19T15:12:35;7.13;;;1.70;;
19221;SDS011;9745;50.828;4.378;2023-09-19T15:15:03;4.63;;;1.30;;
19221;SDS011;9745;50.828;4.378;2023-09-19T15:17:30;7.20;;;1.63;;
19221;SDS011;9745;50.828;4.378;2023-09-19T15:19:56;8.67;;;1.77;;
19221;SDS011;9745;50.828;4.378;2023-09-19T15:22:22;4.90;;;1.60;;
19221;SDS011;9745;50.828;4.378;2023-09-19T15:24:49;12.77;;;2.17;;
19221;SDS011;9745;50.828;4.378;2023-09-19T15:27:16;7.67;;;1.53;;
19221;SDS011;9745;50.828;4.378;2023-09-19T15:29:44;6.90;;;1.53;;
19221;SDS011;9745;50.828;4.378;2023-09-19T15:32:10;5.60;;;1.60;;
19221;SDS011;9745;50.828;4.378;2023-09-19T15:34:36;8.60;;;1.77;;
19221;SDS011;9745;50.828;4.378;2023-09-19T15:37:03;5.93;;;1.40;;
19221;SDS011;9745;50.828;4.378;2023-09-19T15:39:32;4.37;;;1.20;;
19221;SDS011;9745;50.828;4.378;2023-09-19T15:42:02;4.60;;;1.37;;
19221;SDS011;9745;50.828;4.378;2023-09-19T15:44:28;4.40;;;1.33;;
19221;SDS011;9745;50.828;4.378;2023-09-19T15:46:54;6.97;;;1.27;;
19221;SDS011;9745;50.828;4.378;2023-09-19T15:49:20;4.23;;;1.43;;
19221;SDS011;9745;50.828;4.378;2023-09-19T15:51:47;5.00;;;1.10;;
19221;SDS011;9745;50.828;4.378;2023-09-19T15:54:14;6.20;;;1.80;;
19221;SDS011;9745;50.828;4.378;2023-09-19T15:56:40;9.10;;;1.57;;
19221;SDS011;9745;50.828;4.378;2023-09-19T15:59:07;5.90;;;1.07;;